createdAt,value
2019-05-21T00:00:27.146Z,12.20
2019-05-21T00:02:55.913Z,12.30
2019-05-21T00:05:26.374Z,12.40
2019-05-21T00:07:57.022Z,12.50
2019-05-21T00:10:25.649Z,12.60
2019-05-21T00:12:54.206Z,12.70
2019-05-21T00:15:22.879Z,12.70
2019-05-21T00:17:51.496Z,12.80
2019-05-21T00:20:20.227Z,12.90
2019-05-21T00:22:48.822Z,12.90
2019-05-21T00:25:17.617Z,13.00
2019-05-21T00:27:46.174Z,13.00
2019-05-21T00:30:50.887Z,13.10
2019-05-21T00:33:55.591Z,13.20
2019-05-21T00:37:01.618Z,13.20
2019-05-21T00:40:06.167Z,13.20
2019-05-21T00:42:37.795Z,13.10
2019-05-21T00:45:09.694Z,13.00
2019-05-21T00:47:38.529Z,12.90
2019-05-21T00:50:09.216Z,12.90
2019-05-21T00:52:37.874Z,12.90
2019-05-21T00:55:07.470Z,12.90
2019-05-21T00:57:37.258Z,12.90
2019-05-21T01:00:09.614Z,12.90
2019-05-21T01:02:38.387Z,12.90
2019-05-21T01:05:07.114Z,12.80
2019-05-21T01:07:35.661Z,12.80
2019-05-21T01:10:07.189Z,12.70
2019-05-21T01:12:35.875Z,12.70
2019-05-21T01:15:06.867Z,12.70
2019-05-21T01:17:36.698Z,12.60
2019-05-21T01:20:05.840Z,12.50
2019-05-21T01:22:35.683Z,12.40
2019-05-21T01:25:05.579Z,12.40
2019-05-21T01:27:34.344Z,12.30
2019-05-21T01:30:03.271Z,12.30
2019-05-21T01:32:31.909Z,12.20
2019-05-21T01:35:15.667Z,12.10
2019-05-21T01:37:30.758Z,12.00
2019-05-21T01:39:59.311Z,12.00
2019-05-21T01:42:28.002Z,11.90
2019-05-21T01:45:00.462Z,11.90
2019-05-21T01:47:30.419Z,11.80
2019-05-21T01:49:58.976Z,11.80
2019-05-21T01:52:27.554Z,11.70
2019-05-21T01:54:56.275Z,11.70
2019-05-21T01:57:26.370Z,11.70
2019-05-21T01:59:55.002Z,11.60
2019-05-21T02:02:23.577Z,11.60
2019-05-21T02:04:53.747Z,11.50
2019-05-21T02:07:22.370Z,11.50
2019-05-21T02:09:59.810Z,11.40
2019-05-21T02:12:28.502Z,11.30
2019-05-21T02:14:57.227Z,11.30
2019-05-21T02:17:25.919Z,11.30
2019-05-21T02:19:54.540Z,11.20
2019-05-21T02:22:23.198Z,11.20
2019-05-21T02:24:51.775Z,11.10
2019-05-21T02:27:20.339Z,11.10
2019-05-21T02:29:49.054Z,11.10
2019-05-21T02:32:17.623Z,11.10
2019-05-21T02:34:46.235Z,11.10
2019-05-21T02:37:14.829Z,11.10
2019-05-21T02:39:43.453Z,11.10
2019-05-21T02:42:15.224Z,11.10
2019-05-21T02:44:43.958Z,11.00
2019-05-21T02:47:12.585Z,11.10
2019-05-21T02:49:41.380Z,11.10
2019-05-21T02:52:10.145Z,11.10
2019-05-21T02:54:41.514Z,11.20
2019-05-21T02:57:08.955Z,11.30
2019-05-21T02:59:38.144Z,11.30
2019-05-21T03:02:14.476Z,11.50
2019-05-21T03:04:43.138Z,11.50
2019-05-21T03:07:17.815Z,11.50
2019-05-21T03:09:48.942Z,11.50
2019-05-21T03:12:18.195Z,11.50
2019-05-21T03:14:47.190Z,11.40
2019-05-21T03:17:15.834Z,11.40
2019-05-21T03:19:44.544Z,11.40
2019-05-21T03:22:13.175Z,11.40
2019-05-21T03:24:41.873Z,11.40
2019-05-21T03:27:10.599Z,11.40
2019-05-21T03:29:39.229Z,11.40
2019-05-21T03:32:09.046Z,11.30
2019-05-21T03:34:37.695Z,11.30
2019-05-21T03:37:06.312Z,11.30
2019-05-21T03:39:34.948Z,11.30
2019-05-21T03:42:03.677Z,11.30
2019-05-21T03:44:32.366Z,11.30
2019-05-21T03:47:01.135Z,11.30
2019-05-21T03:49:30.074Z,11.30
2019-05-21T03:51:58.629Z,11.30
2019-05-21T03:54:27.315Z,11.40
2019-05-21T03:56:55.972Z,11.40
2019-05-21T03:59:24.626Z,11.50
2019-05-21T04:01:55.299Z,11.50
2019-05-21T04:04:26.306Z,11.60
2019-05-21T04:06:56.393Z,11.60
2019-05-21T04:09:25.097Z,11.80
2019-05-21T04:11:53.762Z,11.90
2019-05-21T04:14:36.032Z,12.00
2019-05-21T04:17:09.051Z,12.10
2019-05-21T04:19:47.999Z,12.20
2019-05-21T04:22:17.725Z,12.30
2019-05-21T04:24:46.412Z,12.40
2019-05-21T04:27:15.478Z,12.60
2019-05-21T04:29:44.202Z,12.70
2019-05-21T04:32:12.821Z,12.80
2019-05-21T04:34:41.378Z,12.90
2019-05-21T04:37:11.857Z,13.20
2019-05-21T04:39:40.359Z,14.60
2019-05-21T04:42:09.056Z,17.40
2019-05-21T04:44:37.647Z,20.00
2019-05-21T04:47:06.265Z,22.10
2019-05-21T04:49:34.974Z,23.80
2019-05-21T04:52:03.615Z,25.20
2019-05-21T04:54:32.189Z,26.40
2019-05-21T04:57:00.738Z,27.20
2019-05-21T04:59:29.325Z,27.90
2019-05-21T05:01:59.328Z,28.50
2019-05-21T05:04:28.157Z,28.80
2019-05-21T05:06:58.822Z,29.00
2019-05-21T05:09:30.831Z,29.40
2019-05-21T05:12:00.480Z,29.50
2019-05-21T05:14:30.076Z,29.50
2019-05-21T05:16:58.763Z,29.60
2019-05-21T05:19:27.412Z,29.40
2019-05-21T05:21:56.122Z,29.60
2019-05-21T05:24:25.819Z,29.60
2019-05-21T05:26:54.502Z,29.50
2019-05-21T05:29:24.775Z,30.10
2019-05-21T05:31:53.394Z,30.40
2019-05-21T05:34:22.015Z,30.70
2019-05-21T05:36:50.655Z,31.00
2019-05-21T05:39:19.351Z,31.20
2019-05-21T05:41:47.976Z,31.30
2019-05-21T05:44:16.686Z,31.90
2019-05-21T05:46:45.248Z,32.10
2019-05-21T05:49:15.428Z,32.40
2019-05-21T05:51:43.970Z,32.70
2019-05-21T05:54:12.547Z,32.70
2019-05-21T05:56:41.247Z,33.20
2019-05-21T05:59:13.734Z,33.60
2019-05-21T06:01:40.499Z,33.60
2019-05-21T06:04:09.116Z,33.60
2019-05-21T06:06:37.738Z,34.30
2019-05-21T06:09:06.590Z,34.50
2019-05-21T06:11:35.206Z,34.90
2019-05-21T06:14:03.844Z,34.80
2019-05-21T06:16:32.490Z,34.70
2019-05-21T06:19:01.111Z,35.30
2019-05-21T06:21:29.664Z,35.80
2019-05-21T06:23:58.253Z,36.20
2019-05-21T06:26:27.899Z,36.50
2019-05-21T06:28:56.439Z,36.90
2019-05-21T06:31:25.122Z,37.20
2019-05-21T06:33:53.812Z,37.10
2019-05-21T06:36:22.427Z,36.20
2019-05-21T06:38:51.058Z,36.00
2019-05-21T06:41:19.607Z,35.60
2019-05-21T06:43:48.155Z,36.10
2019-05-21T06:46:16.885Z,36.30
2019-05-21T06:48:45.574Z,35.90
2019-05-21T06:51:14.202Z,35.30
2019-05-21T06:53:42.775Z,35.40
2019-05-21T06:56:11.412Z,35.70
2019-05-21T06:58:40.129Z,35.70
2019-05-21T07:01:08.675Z,36.10
2019-05-21T07:03:37.323Z,35.50
2019-05-21T07:06:06.010Z,36.70
2019-05-21T07:08:35.368Z,37.10
2019-05-21T07:11:04.705Z,37.30
2019-05-21T07:13:33.552Z,37.00
2019-05-21T07:16:02.230Z,37.00
2019-05-21T07:18:30.815Z,37.20
2019-05-21T07:20:59.435Z,37.70
2019-05-21T07:23:28.062Z,37.80
2019-05-21T07:25:56.728Z,37.80
2019-05-21T07:28:25.419Z,37.60
2019-05-21T07:30:54.044Z,37.30
2019-05-21T07:33:22.731Z,36.80
2019-05-21T07:35:51.385Z,36.20
2019-05-21T07:38:19.945Z,36.10
2019-05-21T07:40:48.547Z,36.10
2019-05-21T07:43:17.233Z,35.70
2019-05-21T07:45:45.746Z,34.20
2019-05-21T07:48:14.676Z,33.20
2019-05-21T07:50:43.327Z,32.50
2019-05-21T07:53:11.951Z,32.70
2019-05-21T07:55:40.585Z,33.30
2019-05-21T07:58:09.260Z,33.70
2019-05-21T08:00:37.963Z,33.50
2019-05-21T08:03:06.577Z,33.40
2019-05-21T08:05:35.240Z,33.20
2019-05-21T08:08:03.907Z,32.50
2019-05-21T08:10:32.535Z,31.20
2019-05-21T08:13:01.086Z,29.70
2019-05-21T08:15:29.627Z,28.40
2019-05-21T08:17:58.338Z,27.20
2019-05-21T08:20:27.926Z,26.60
2019-05-21T08:22:56.410Z,26.30
2019-05-21T08:25:25.202Z,26.10
2019-05-21T08:27:53.898Z,26.00
2019-05-21T08:30:22.595Z,25.90
2019-05-21T08:32:51.145Z,25.80
2019-05-21T08:35:19.695Z,25.70
2019-05-21T08:37:48.282Z,25.80
2019-05-21T08:40:18.355Z,25.90
2019-05-21T08:42:46.973Z,26.00
2019-05-21T08:45:15.895Z,26.00
2019-05-21T08:47:44.587Z,26.10
2019-05-21T08:50:13.573Z,26.00
2019-05-21T08:52:42.222Z,25.90
2019-05-21T08:55:12.385Z,25.90
2019-05-21T08:57:42.534Z,25.80
2019-05-21T09:00:14.784Z,25.80
2019-05-21T09:02:43.474Z,25.70
2019-05-21T09:05:12.262Z,26.00
2019-05-21T09:07:40.984Z,26.00
2019-05-21T09:10:10.672Z,26.00
2019-05-21T09:12:39.374Z,25.70
2019-05-21T09:15:08.595Z,25.50
2019-05-21T09:17:37.280Z,25.20
2019-05-21T09:20:08.048Z,25.20
2019-05-21T09:22:36.694Z,25.50
2019-05-21T09:25:08.291Z,25.80
2019-05-21T09:27:37.104Z,26.10
2019-05-21T09:30:09.526Z,26.40
2019-05-21T09:32:38.211Z,26.50
2019-05-21T09:35:07.806Z,26.70
2019-05-21T09:37:36.458Z,26.70
2019-05-21T09:40:06.916Z,26.90
2019-05-21T09:42:35.535Z,27.10
2019-05-21T09:45:08.414Z,27.20
2019-05-21T09:47:37.042Z,27.20
2019-05-21T09:50:09.429Z,26.80
2019-05-21T09:52:38.155Z,26.40
2019-05-21T09:55:07.252Z,26.10
2019-05-21T09:57:37.581Z,26.00
2019-05-21T10:00:18.599Z,25.70
2019-05-21T10:02:47.406Z,25.50
2019-05-21T10:05:16.183Z,25.40
2019-05-21T10:07:44.798Z,25.50
2019-05-21T10:10:13.519Z,25.50
2019-05-21T10:12:42.199Z,25.60
2019-05-21T10:15:10.890Z,25.70
2019-05-21T10:17:39.666Z,26.10
2019-05-21T10:20:08.504Z,26.40
2019-05-21T10:22:39.114Z,26.70
2019-05-21T10:25:07.875Z,26.90
2019-05-21T10:27:36.538Z,26.90
2019-05-21T10:30:06.811Z,26.80
2019-05-21T10:32:35.387Z,26.80
2019-05-21T10:35:05.321Z,26.70
2019-05-21T10:37:34.242Z,26.70
2019-05-21T10:40:03.377Z,26.40
2019-05-21T10:42:31.942Z,26.60
2019-05-21T10:45:00.513Z,27.20
2019-05-21T10:47:29.047Z,27.50
2019-05-21T10:49:57.639Z,27.80
2019-05-21T10:52:26.215Z,28.20
2019-05-21T10:54:54.826Z,28.30
2019-05-21T10:57:23.391Z,28.30
2019-05-21T10:59:51.938Z,27.60
2019-05-21T11:02:22.263Z,27.40
2019-05-21T11:04:58.523Z,27.00
2019-05-21T11:07:27.212Z,26.40
2019-05-21T11:09:55.913Z,25.90
2019-05-21T11:12:24.904Z,25.70
2019-05-21T11:14:53.523Z,25.50
2019-05-21T11:17:22.386Z,25.30
2019-05-21T11:19:50.964Z,25.50
2019-05-21T11:22:19.603Z,25.70
2019-05-21T11:24:48.207Z,25.50
2019-05-21T11:27:16.837Z,25.30
2019-05-21T11:29:45.536Z,25.40
2019-05-21T11:32:14.278Z,25.20
2019-05-21T11:34:42.976Z,25.30
2019-05-21T11:37:11.590Z,25.40
2019-05-21T11:39:40.950Z,25.50
2019-05-21T11:42:09.643Z,25.40
2019-05-21T11:44:38.195Z,25.40
2019-05-21T11:47:07.070Z,25.40
2019-05-21T11:49:35.880Z,25.40
2019-05-21T11:52:04.509Z,25.50
2019-05-21T11:54:33.158Z,25.70
2019-05-21T11:57:01.719Z,25.70
2019-05-21T11:59:30.259Z,25.50
2019-05-21T12:01:58.980Z,25.40
2019-05-21T12:04:27.538Z,25.30
2019-05-21T12:06:56.155Z,25.10
2019-05-21T12:09:24.815Z,25.20
2019-05-21T12:11:53.433Z,25.50
2019-05-21T12:14:21.984Z,25.70
2019-05-21T12:16:50.639Z,25.80
2019-05-21T12:19:19.212Z,25.90
2019-05-21T12:21:47.813Z,25.70
2019-05-21T12:24:16.456Z,25.60
2019-05-21T12:26:46.619Z,25.50
2019-05-21T12:29:15.251Z,25.20
2019-05-21T12:31:43.882Z,25.10
2019-05-21T12:34:12.510Z,25.00
2019-05-21T12:36:41.250Z,25.10
2019-05-21T12:39:14.179Z,25.10
2019-05-21T12:41:40.201Z,25.00
2019-05-21T12:44:08.931Z,25.00
2019-05-21T12:46:37.569Z,25.00
2019-05-21T12:49:07.677Z,24.80
2019-05-21T12:51:36.291Z,24.70
2019-05-21T12:54:05.014Z,24.50
2019-05-21T12:56:34.510Z,24.50
2019-05-21T12:59:03.306Z,24.60
2019-05-21T13:01:31.962Z,24.50
2019-05-21T13:04:00.660Z,24.50
2019-05-21T13:06:29.356Z,24.40
2019-05-21T13:08:58.004Z,24.30
2019-05-21T13:11:26.697Z,24.20
2019-05-21T13:13:55.449Z,24.10
2019-05-21T13:16:24.097Z,23.90
2019-05-21T13:18:52.647Z,23.80
2019-05-21T13:21:21.388Z,23.80
2019-05-21T13:23:50.056Z,23.70
2019-05-21T13:26:18.757Z,23.70
2019-05-21T13:28:47.307Z,23.80
2019-05-21T13:31:16.031Z,24.00
2019-05-21T13:33:44.661Z,24.20
2019-05-21T13:36:13.395Z,24.40
2019-05-21T13:38:42.072Z,24.50
2019-05-21T13:41:11.385Z,24.40
2019-05-21T13:43:39.991Z,24.40
2019-05-21T13:46:08.720Z,24.40
2019-05-21T13:48:37.419Z,24.60
2019-05-21T13:51:06.223Z,24.90
2019-05-21T13:53:34.935Z,24.90
2019-05-21T13:56:04.919Z,25.00
2019-05-21T13:58:33.620Z,25.10
2019-05-21T14:01:02.551Z,25.20
2019-05-21T14:03:31.267Z,25.60
2019-05-21T14:05:59.965Z,25.90
2019-05-21T14:08:28.588Z,26.10
2019-05-21T14:10:57.416Z,26.20
2019-05-21T14:13:26.113Z,26.10
2019-05-21T14:15:54.669Z,25.70
2019-05-21T14:18:23.426Z,25.40
2019-05-21T14:20:53.839Z,25.20
2019-05-21T14:23:22.448Z,25.00
2019-05-21T14:25:51.283Z,24.80
2019-05-21T14:28:19.912Z,24.70
2019-05-21T14:30:48.602Z,24.70
2019-05-21T14:33:17.262Z,24.60
2019-05-21T14:35:47.313Z,24.60
2019-05-21T14:38:15.942Z,24.60
2019-05-21T14:40:44.680Z,24.70
2019-05-21T14:43:13.356Z,24.80
2019-05-21T14:45:42.150Z,24.90
2019-05-21T14:48:10.875Z,25.10
2019-05-21T14:50:39.474Z,25.10
2019-05-21T14:53:08.251Z,24.80
2019-05-21T14:55:36.974Z,24.40
2019-05-21T14:58:05.867Z,23.80
2019-05-21T15:00:37.081Z,23.40
2019-05-21T15:03:06.081Z,23.00
2019-05-21T15:05:35.579Z,22.70
2019-05-21T15:08:05.174Z,22.70
2019-05-21T15:10:47.207Z,22.60
2019-05-21T15:13:06.121Z,22.50
2019-05-21T15:15:35.512Z,22.50
2019-05-21T15:18:04.640Z,22.50
2019-05-21T15:20:49.994Z,22.60
2019-05-21T15:23:18.734Z,22.60
2019-05-21T15:25:47.426Z,22.70
2019-05-21T15:28:15.974Z,22.70
2019-05-21T15:30:44.573Z,22.80
2019-05-21T15:33:13.196Z,22.80
2019-05-21T15:35:41.829Z,22.80
2019-05-21T15:38:10.419Z,22.90
2019-05-21T15:40:39.120Z,23.00
2019-05-21T15:43:07.822Z,23.10
2019-05-21T15:45:36.535Z,23.20
2019-05-21T15:48:05.222Z,23.10
2019-05-21T15:50:33.916Z,23.10
2019-05-21T15:53:02.572Z,23.10
2019-05-21T15:55:31.426Z,23.10
2019-05-21T15:58:00.612Z,23.10
2019-05-21T16:00:29.498Z,23.00
2019-05-21T16:02:58.224Z,22.90
2019-05-21T16:05:26.920Z,22.90
2019-05-21T16:07:55.539Z,22.80
2019-05-21T16:10:24.191Z,22.70
2019-05-21T16:12:54.194Z,22.70
2019-05-21T16:15:23.296Z,22.60
2019-05-21T16:17:51.945Z,22.50
2019-05-21T16:20:20.655Z,22.50
2019-05-21T16:22:49.363Z,22.50
2019-05-21T16:25:18.113Z,22.50
2019-05-21T16:27:46.810Z,22.50
2019-05-21T16:30:15.619Z,22.50
2019-05-21T16:32:44.288Z,22.40
2019-05-21T16:35:13.187Z,22.30
2019-05-21T16:37:41.896Z,22.30
2019-05-21T16:40:12.613Z,22.20
2019-05-21T16:42:41.250Z,22.10
2019-05-21T16:45:10.552Z,22.00
2019-05-21T16:47:45.593Z,22.00
2019-05-21T16:50:10.175Z,21.90
2019-05-21T16:52:39.002Z,21.80
2019-05-21T16:55:08.032Z,21.70
2019-05-21T16:57:36.745Z,21.70
2019-05-21T17:00:09.184Z,21.70
2019-05-21T17:02:39.371Z,21.70
2019-05-21T17:05:08.279Z,21.70
2019-05-21T17:07:37.017Z,21.70
2019-05-21T17:10:06.930Z,21.60
2019-05-21T17:12:35.548Z,21.60
2019-05-21T17:15:06.331Z,21.60
2019-05-21T17:17:35.083Z,21.60
2019-05-21T17:20:08.580Z,21.60
2019-05-21T17:22:37.288Z,21.50
2019-05-21T17:25:08.941Z,21.50
2019-05-21T17:27:37.578Z,21.50
2019-05-21T17:30:08.592Z,21.40
2019-05-21T17:32:37.402Z,21.40
2019-05-21T17:35:06.501Z,21.40
2019-05-21T17:37:35.134Z,21.30
2019-05-21T17:40:04.927Z,21.30
2019-05-21T17:42:33.546Z,21.20
2019-05-21T17:45:02.289Z,21.00
2019-05-21T17:47:30.906Z,21.00
2019-05-21T17:49:59.519Z,20.90
2019-05-21T17:52:28.168Z,20.80
2019-05-21T17:54:57.301Z,20.70
2019-05-21T17:57:26.234Z,20.60
2019-05-21T17:59:54.818Z,20.50
2019-05-21T18:02:23.835Z,20.40
2019-05-21T18:04:53.146Z,20.30
2019-05-21T18:07:23.427Z,20.30
2019-05-21T18:09:52.089Z,20.20
2019-05-21T18:12:31.767Z,20.10
2019-05-21T18:14:51.981Z,20.10
2019-05-21T18:17:22.295Z,20.10
2019-05-21T18:19:51.654Z,20.00
2019-05-21T18:22:22.049Z,19.90
2019-05-21T18:24:50.822Z,19.90
2019-05-21T18:27:20.187Z,19.90
2019-05-21T18:29:48.900Z,19.80
2019-05-21T18:32:17.729Z,19.70
2019-05-21T18:34:46.358Z,19.50
2019-05-21T18:37:15.082Z,19.40
2019-05-21T18:39:43.785Z,19.10
2019-05-21T18:42:21.625Z,18.90
2019-05-21T18:44:42.726Z,18.60
2019-05-21T18:47:11.283Z,18.40
2019-05-21T18:49:39.967Z,18.20
2019-05-21T18:52:08.715Z,18.10
2019-05-21T18:54:37.334Z,18.00
2019-05-21T18:57:06.027Z,17.90
2019-05-21T18:59:34.688Z,17.70
2019-05-21T19:02:03.550Z,17.60
2019-05-21T19:04:32.679Z,17.50
2019-05-21T19:07:01.328Z,17.40
2019-05-21T19:09:30.070Z,17.40
2019-05-21T19:11:58.707Z,17.30
2019-05-21T19:14:27.360Z,17.30
2019-05-21T19:16:55.917Z,17.30
2019-05-21T19:19:24.636Z,17.30
2019-05-21T19:21:53.359Z,17.20
2019-05-21T19:24:21.990Z,17.10
2019-05-21T19:26:50.560Z,17.10
2019-05-21T19:29:19.259Z,17.10
2019-05-21T19:31:49.440Z,17.10
2019-05-21T19:34:18.216Z,17.00
2019-05-21T19:36:46.771Z,17.00
2019-05-21T19:39:15.328Z,17.00
2019-05-21T19:41:44.051Z,17.00
2019-05-21T19:44:12.601Z,17.00
2019-05-21T19:46:41.276Z,17.00
2019-05-21T19:49:09.887Z,17.00
2019-05-21T19:51:38.587Z,17.00
2019-05-21T19:54:08.575Z,17.00
2019-05-21T19:56:38.458Z,17.00
2019-05-21T19:59:07.190Z,16.90
2019-05-21T20:01:36.192Z,16.90
2019-05-21T20:04:06.814Z,16.90
2019-05-21T20:06:36.192Z,16.90
2019-05-21T20:09:08.215Z,16.90
2019-05-21T20:11:37.438Z,16.90
2019-05-21T20:14:06.082Z,16.80
2019-05-21T20:16:35.727Z,16.80
2019-05-21T20:19:05.264Z,16.80
2019-05-21T20:21:34.566Z,16.80
2019-05-21T20:24:03.714Z,16.70
2019-05-21T20:26:34.015Z,16.70
2019-05-21T20:29:02.724Z,16.70
2019-05-21T20:31:31.341Z,16.70
2019-05-21T20:34:00.939Z,16.70
2019-05-21T20:36:29.755Z,16.70
2019-05-21T20:38:59.341Z,16.60
2019-05-21T20:41:29.770Z,16.60
2019-05-21T20:43:59.529Z,16.50
2019-05-21T20:46:28.309Z,16.50
2019-05-21T20:48:57.110Z,16.40
2019-05-21T20:51:26.058Z,16.40
2019-05-21T20:53:54.607Z,16.40
2019-05-21T20:56:23.234Z,16.40
2019-05-21T20:58:52.259Z,16.40
2019-05-21T21:01:20.946Z,16.40
2019-05-21T21:03:52.135Z,16.30
2019-05-21T21:06:34.926Z,16.40
2019-05-21T21:08:52.383Z,16.30
2019-05-21T21:11:21.118Z,16.30
2019-05-21T21:13:50.534Z,16.30
2019-05-21T21:16:19.227Z,16.30
2019-05-21T21:18:47.920Z,16.30
2019-05-21T21:21:16.779Z,16.30
2019-05-21T21:23:46.645Z,16.30
2019-05-21T21:26:16.066Z,16.30
2019-05-21T21:28:45.998Z,16.30
2019-05-21T21:31:14.955Z,16.30
2019-05-21T21:33:44.071Z,16.30
2019-05-21T21:36:12.810Z,16.40
2019-05-21T21:38:41.867Z,16.40
2019-05-21T21:41:10.827Z,16.40
2019-05-21T21:43:39.384Z,16.40
2019-05-21T21:46:08.121Z,16.40
2019-05-21T21:48:37.284Z,16.40
2019-05-21T21:51:06.242Z,16.40
2019-05-21T21:53:35.718Z,16.40
2019-05-21T21:56:04.338Z,16.30
2019-05-21T21:58:33.035Z,16.30
2019-05-21T22:01:27.231Z,16.30
2019-05-21T22:03:59.436Z,16.20
2019-05-21T22:06:30.327Z,16.10
2019-05-21T22:08:59.624Z,16.10
2019-05-21T22:11:28.227Z,16.00
2019-05-21T22:13:58.807Z,15.90
2019-05-21T22:16:27.785Z,15.80
2019-05-21T22:18:56.939Z,15.80
2019-05-21T22:21:25.861Z,15.70
2019-05-21T22:23:54.530Z,15.70
2019-05-21T22:26:23.247Z,15.60
2019-05-21T22:28:52.086Z,15.60
2019-05-21T22:31:20.712Z,15.50
2019-05-21T22:33:49.268Z,15.50
2019-05-21T22:36:18.031Z,15.50
2019-05-21T22:38:46.655Z,15.50
2019-05-21T22:41:15.388Z,15.40
2019-05-21T22:43:44.447Z,15.40
2019-05-21T22:46:13.081Z,15.30
2019-05-21T22:48:42.009Z,15.30
2019-05-21T22:51:10.707Z,15.30
2019-05-21T22:53:39.435Z,15.20
2019-05-21T22:56:08.259Z,15.20
2019-05-21T22:58:36.882Z,15.20
2019-05-21T23:01:07.349Z,15.20
2019-05-21T23:03:36.247Z,15.10
2019-05-21T23:06:04.934Z,15.00
2019-05-21T23:08:34.027Z,15.00
2019-05-21T23:11:02.681Z,15.00
2019-05-21T23:13:31.330Z,14.90
2019-05-21T23:16:00.574Z,14.90
2019-05-21T23:18:29.226Z,14.90
2019-05-21T23:20:59.758Z,14.80
2019-05-21T23:23:29.050Z,14.80
2019-05-21T23:25:59.168Z,14.70
2019-05-21T23:28:28.237Z,14.70
2019-05-21T23:30:57.461Z,14.70
2019-05-21T23:33:26.142Z,14.70
2019-05-21T23:35:54.770Z,14.70
2019-05-21T23:38:23.502Z,14.70
2019-05-21T23:40:52.259Z,14.70
2019-05-21T23:43:21.189Z,14.70
2019-05-21T23:45:50.209Z,14.70
2019-05-21T23:48:19.478Z,14.70
2019-05-21T23:50:48.545Z,14.80
2019-05-21T23:53:17.366Z,14.90
2019-05-21T23:55:46.529Z,14.90
2019-05-21T23:58:15.299Z,14.90
